Private Wetterstation Wechselburg
Wetterdaten: Donnerstag, 07.03.2013
Datum Zeit Temp. +2m Bodentemp. Temp.+5cm Temp. Wind Windchill X Diff Temp. Feuchte +2m Feuchte +5cm Sonnenschein Luftdruck Regen Wind Richtung Richtung Sonnenschein UV Taupunkt Windchill Windben
07.03.2013 00:00 0,3 C 10,3 C -0,1 C 0,1 C -0,2 C 0,0 C 83 % 87 % 0 % 1005,2 hPa 0,0 l/m 0,0 km/h (0 Bft) O-NO 67 0 min 0,0 UV-I -2,2 C -0,2 C 0,0 km/h (0 Bft)
07.03.2013 00:05 0,3 C 10,3 C -0,1 C 0,2 C 0,0 C 0,0 C 83 % 87 % 0 % 1005,2 hPa 0,0 l/m 0,0 km/h (0 Bft) O-NO 67 0 min 0,0 UV-I -2,2 C 0,0 C 0,0 km/h (0 Bft)
07.03.2013 00:10 0,1 C 10,3 C -0,1 C 0,2 C 0,2 C 0,1 C 83 % 87 % 0 % 1005,2 hPa 0,0 l/m 0,0 km/h (0 Bft) O-NO 67 0 min 0,0 UV-I -2,4 C 0,2 C 0,0 km/h (0 Bft)
07.03.2013 00:15 0,3 C 10,3 C -0,1 C 0,3 C 0,3 C 0,0 C 83 % 87 % 0 % 1005,2 hPa 0,0 l/m 0,0 km/h (0 Bft) O-NO 67 0 min 0,0 UV-I -2,2 C 0,3 C 0,0 km/h (0 Bft)
07.03.2013 00:20 0,1 C 10,3 C -0,1 C 0,3 C 0,3 C 0,2 C 84 % 87 % 0 % 1005,4 hPa 0,0 l/m 0,0 km/h (0 Bft) W-NW 292 0 min 0,0 UV-I -2,3 C 0,3 C 0,0 km/h (0 Bft)
07.03.2013 00:25 0,1 C 10,3 C -0,1 C 0,3 C 0,3 C 0,2 C 84 % 87 % 0 % 1005,4 hPa 0,0 l/m 0,0 km/h (0 Bft) W-NW 292 0 min 0,0 UV-I -2,3 C 0,3 C 0,0 km/h (0 Bft)
07.03.2013 00:30 0,1 C 10,3 C -0,1 C 0,2 C 0,2 C 0,1 C 84 % 87 % 0 % 1005,4 hPa 0,0 l/m 0,0 km/h (0 Bft) N-NW 337 0 min 0,0 UV-I -2,3 C 0,2 C 0,0 km/h (0 Bft)
07.03.2013 00:35 0,1 C 10,3 C -0,1 C 0,3 C 0,3 C 0,2 C 84 % 87 % 0 % 1005,4 hPa 0,0 l/m 0,0 km/h (0 Bft) N-NW 337 0 min 0,0 UV-I -2,3 C 0,3 C 0,0 km/h (0 Bft)
07.03.2013 00:41 0,1 C 10,3 C -0,1 C 0,5 C 0,5 C 0,4 C 84 % 87 % 0 % 1005,2 hPa 0,0 l/m 0,0 km/h (0 Bft) N 0 0 min 0,0 UV-I -2,3 C 0,5 C 0,0 km/h (0 Bft)
07.03.2013 01:00 0,1 C 10,3 C -0,3 C 0,5 C 0,5 C 0,4 C 84 % 87 % 0 % 1005,2 hPa 0,0 l/m 0,0 km/h (0 Bft) NO 45 0 min 0,0 UV-I -2,3 C 0,5 C 0,0 km/h (0 Bft)
07.03.2013 01:05 0,0 C 10,3 C -0,3 C 0,5 C 0,5 C 0,5 C 84 % 87 % 0 % 1005,2 hPa 0,0 l/m 0,0 km/h (0 Bft) O-NO 67 0 min 0,0 UV-I -2,4 C 0,5 C 0,0 km/h (0 Bft)
07.03.2013 01:10 0,0 C 10,3 C -0,3 C 0,3 C 0,3 C 0,3 C 84 % 87 % 0 % 1005,2 hPa 0,0 l/m 0,0 km/h (0 Bft) NO 45 0 min 0,0 UV-I -2,4 C 0,3 C 0,0 km/h (0 Bft)
07.03.2013 01:15 -0,1 C 10,3 C -0,4 C 0,3 C 0,3 C 0,4 C 84 % 87 % 0 % 1005,2 hPa 0,0 l/m 0,0 km/h (0 Bft) O-NO 67 0 min 0,0 UV-I -2,5 C 0,3 C 0,0 km/h (0 Bft)
07.03.2013 01:20 -0,1 C 10,3 C -0,4 C 0,4 C 0,4 C 0,5 C 84 % 87 % 0 % 1004,9 hPa 0,0 l/m 0,0 km/h (0 Bft) O-NO 67 0 min 0,0 UV-I -2,5 C 0,4 C 0,0 km/h (0 Bft)
07.03.2013 01:25 -0,1 C 10,3 C -0,4 C 0,4 C 0,4 C 0,5 C 84 % 87 % 0 % 1004,9 hPa 0,0 l/m 0,0 km/h (0 Bft) O-NO 67 0 min 0,0 UV-I -2,5 C 0,4 C 0,0 km/h (0 Bft)
07.03.2013 01:30 -0,1 C 10,3 C -0,4 C 0,4 C 0,4 C 0,5 C 84 % 88 % 0 % 1004,9 hPa 0,0 l/m 0,0 km/h (0 Bft) N 360 0 min 0,0 UV-I -2,5 C 0,4 C 0,0 km/h (0 Bft)
07.03.2013 01:35 0,1 C 10,3 C -0,3 C 0,5 C 0,5 C 0,4 C 85 % 88 % 0 % 1004,9 hPa 0,0 l/m 0,0 km/h (0 Bft) N-NW 337 0 min 0,0 UV-I -2,1 C 0,5 C 0,0 km/h (0 Bft)
07.03.2013 01:40 0,1 C 10,3 C -0,3 C 0,8 C 0,8 C 0,7 C 85 % 88 % 0 % 1004,8 hPa 0,0 l/m 0,0 km/h (0 Bft) N 360 0 min 0,0 UV-I -2,1 C 0,8 C 0,0 km/h (0 Bft)
07.03.2013 01:45 0,1 C 10,3 C -0,3 C 1,0 C 1,0 C 0,9 C 85 % 88 % 0 % 1004,8 hPa 0,0 l/m 0,0 km/h (0 Bft) N-NO 22 0 min 0,0 UV-I -2,1 C 1,0 C 0,0 km/h (0 Bft)
07.03.2013 01:50 0,1 C 10,3 C -0,3 C 1,0 C 1,0 C 0,9 C 85 % 88 % 0 % 1004,8 hPa 0,0 l/m 0,0 km/h (0 Bft) W-SW 247 0 min 0,0 UV-I -2,1 C 1,0 C 0,0 km/h (0 Bft)
07.03.2013 01:55 -0,1 C 10,3 C -0,3 C 0,9 C 0,9 C 1,0 C 85 % 88 % 0 % 1004,8 hPa 0,0 l/m 0,0 km/h (0 Bft) W-SW 247 0 min 0,0 UV-I -2,3 C 0,9 C 0,0 km/h (0 Bft)
07.03.2013 02:00 -0,1 C 10,3 C -0,3 C 0,6 C 0,6 C 0,7 C 85 % 88 % 0 % 1004,6 hPa 0,0 l/m 0,0 km/h (0 Bft) W-SW 247 0 min 0,0 UV-I -2,3 C 0,6 C 0,0 km/h (0 Bft)
07.03.2013 02:05 -0,1 C 10,3 C -0,3 C 0,5 C 0,5 C 0,6 C 84 % 88 % 0 % 1004,6 hPa 0,0 l/m 0,0 km/h (0 Bft) W-SW 247 0 min 0,0 UV-I -2,5 C 0,5 C 0,0 km/h (0 Bft)
07.03.2013 02:10 -0,1 C 10,3 C -0,3 C 0,3 C 0,3 C 0,4 C 84 % 88 % 0 % 1004,6 hPa 0,0 l/m 0,0 km/h (0 Bft) W-SW 247 0 min 0,0 UV-I -2,5 C 0,3 C 0,0 km/h (0 Bft)
07.03.2013 02:15 -0,3 C 10,3 C -0,3 C 0,1 C 0,1 C 0,4 C 84 % 88 % 0 % 1004,6 hPa 0,0 l/m 0,0 km/h (0 Bft) W-SW 247 0 min 0,0 UV-I -2,7 C 0,1 C 0,0 km/h (0 Bft)
07.03.2013 02:20 -0,3 C 10,3 C -0,3 C 0,1 C 0,1 C 0,4 C 85 % 88 % 0 % 1004,1 hPa 0,0 l/m 0,0 km/h (0 Bft) W-SW 247 0 min 0,0 UV-I -2,5 C 0,1 C 0,0 km/h (0 Bft)
07.03.2013 02:25 -0,3 C 10,3 C -0,1 C 0,2 C 0,2 C 0,5 C 85 % 88 % 0 % 1004,1 hPa 0,0 l/m 0,0 km/h (0 Bft) W-SW 247 0 min 0,0 UV-I -2,5 C 0,2 C 0,0 km/h (0 Bft)
07.03.2013 02:30 -0,4 C 10,3 C -0,2 C 0,2 C 0,2 C 0,6 C 85 % 88 % 0 % 1004,1 hPa 0,0 l/m 0,0 km/h (0 Bft) W-SW 247 0 min 0,0 UV-I -2,6 C 0,2 C 0,0 km/h (0 Bft)
07.03.2013 02:35 -0,3 C 10,3 C -0,1 C 0,2 C 0,2 C 0,5 C 85 % 88 % 0 % 1004,1 hPa 0,0 l/m 0,0 km/h (0 Bft) W-SW 247 0 min 0,0 UV-I -2,5 C 0,2 C 0,0 km/h (0 Bft)
07.03.2013 02:40 -0,3 C 10,3 C -0,1 C 0,4 C 0,4 C 0,7 C 85 % 89 % 0 % 1003,8 hPa 0,0 l/m 0,0 km/h (0 Bft) W-SW 247 0 min 0,0 UV-I -2,5 C 0,4 C 0,0 km/h (0 Bft)
07.03.2013 02:45 -0,3 C 10,3 C 0,1 C 0,5 C 0,5 C 0,8 C 86 % 88 % 0 % 1003,8 hPa 0,0 l/m 0,0 km/h (0 Bft) W-SW 247 0 min 0,0 UV-I -2,3 C 0,5 C 0,0 km/h (0 Bft)
07.03.2013 02:50 -0,3 C 10,3 C 0,2 C 0,6 C 0,6 C 0,9 C 86 % 89 % 0 % 1003,8 hPa 0,0 l/m 0,0 km/h (0 Bft) W 270 0 min 0,0 UV-I -2,3 C 0,6 C 0,0 km/h (0 Bft)
07.03.2013 02:55 -0,1 C 10,3 C 0,3 C 0,7 C 0,7 C 0,8 C 86 % 89 % 0 % 1003,8 hPa 0,0 l/m 0,0 km/h (0 Bft) O-NO 67 0 min 0,0 UV-I -2,2 C 0,7 C 0,0 km/h (0 Bft)
07.03.2013 03:00 -0,1 C 10,3 C 0,4 C 1,0 C 1,0 C 1,1 C 86 % 89 % 0 % 1003,9 hPa 0,0 l/m 0,0 km/h (0 Bft) O-NO 67 0 min 0,0 UV-I -2,2 C 1,0 C 0,0 km/h (0 Bft)
07.03.2013 03:05 -0,1 C 10,3 C 0,4 C 1,0 C 1,0 C 1,1 C 86 % 89 % 0 % 1003,9 hPa 0,0 l/m 0,0 km/h (0 Bft) O-NO 67 0 min 0,0 UV-I -2,2 C 1,0 C 0,0 km/h (0 Bft)
07.03.2013 03:10 -0,1 C 10,3 C 0,4 C 1,0 C 1,0 C 1,1 C 86 % 88 % 0 % 1003,9 hPa 0,0 l/m 0,0 km/h (0 Bft) NW 315 0 min 0,0 UV-I -2,2 C 1,0 C 0,0 km/h (0 Bft)
07.03.2013 03:15 -0,1 C 10,3 C 0,4 C 1,0 C 1,0 C 1,1 C 86 % 88 % 0 % 1003,9 hPa 0,0 l/m 0,0 km/h (0 Bft) O 90 0 min 0,0 UV-I -2,2 C 1,0 C 0,0 km/h (0 Bft)
07.03.2013 03:20 -0,1 C 10,3 C 0,5 C 1,0 C 1,0 C 1,1 C 86 % 88 % 0 % 1004,1 hPa 0,0 l/m 0,2 km/h (0 Bft) SW 225 0 min 0,0 UV-I -2,2 C 1,0 C 1,8 km/h (1 Bft)
07.03.2013 03:25 -0,1 C 10,3 C 0,4 C 1,0 C 1,0 C 1,1 C 86 % 88 % 0 % 1004,1 hPa 0,0 l/m 0,2 km/h (0 Bft) W 270 0 min 0,0 UV-I -2,2 C 1,0 C 0,0 km/h (0 Bft)
07.03.2013 03:30 -0,1 C 10,3 C 0,5 C 1,0 C 1,0 C 1,1 C 86 % 88 % 0 % 1004,1 hPa 0,0 l/m 0,2 km/h (0 Bft) O-SO 112 0 min 0,0 UV-I -2,2 C 1,0 C 0,0 km/h (0 Bft)
07.03.2013 03:35 -0,1 C 10,3 C 0,7 C 1,0 C 1,0 C 1,1 C 86 % 88 % 0 % 1004,1 hPa 0,0 l/m 0,0 km/h (0 Bft) SW 225 0 min 0,0 UV-I -2,2 C 1,0 C 0,0 km/h (0 Bft)
07.03.2013 03:40 -0,1 C 10,3 C 0,7 C 1,0 C 1,0 C 1,1 C 86 % 88 % 0 % 1003,9 hPa 0,0 l/m 0,3 km/h (0 Bft) W 270 0 min 0,0 UV-I -2,2 C 1,0 C 0,0 km/h (0 Bft)
07.03.2013 03:45 -0,1 C 10,3 C 0,7 C 1,0 C 1,0 C 1,1 C 86 % 88 % 0 % 1003,9 hPa 0,0 l/m 0,3 km/h (0 Bft) N-NO 22 0 min 0,0 UV-I -2,2 C 1,0 C 0,0 km/h (0 Bft)
07.03.2013 03:50 -0,1 C 10,3 C 0,6 C 1,0 C 1,0 C 1,1 C 86 % 88 % 0 % 1003,9 hPa 0,0 l/m 0,0 km/h (0 Bft) W 270 0 min 0,0 UV-I -2,2 C 1,0 C 0,0 km/h (0 Bft)
07.03.2013 03:55 -0,1 C 10,3 C 0,7 C 1,0 C 1,0 C 1,1 C 86 % 88 % 0 % 1003,9 hPa 0,0 l/m 0,0 km/h (0 Bft) N 360 0 min 0,0 UV-I -2,2 C 1,0 C 0,0 km/h (0 Bft)
07.03.2013 04:00 0,0 C 10,3 C 0,7 C 1,1 C 1,1 C 1,1 C 87 % 88 % 0 % 1003,5 hPa 0,0 l/m 0,5 km/h (0 Bft) N-NO 22 0 min 0,0 UV-I -1,9 C 1,1 C 0,0 km/h (0 Bft)
07.03.2013 04:05 0,3 C 10,3 C 0,9 C 1,6 C 1,6 C 1,3 C 87 % 89 % 0 % 1003,5 hPa 0,0 l/m 0,5 km/h (0 Bft) NW 315 0 min 0,0 UV-I -1,6 C 1,6 C 0,0 km/h (0 Bft)
07.03.2013 04:10 0,3 C 10,3 C 0,8 C 1,7 C 1,7 C 1,4 C 87 % 88 % 0 % 1003,5 hPa 0,0 l/m 0,2 km/h (0 Bft) N-NO 22 0 min 0,0 UV-I -1,6 C 1,7 C 0,0 km/h (0 Bft)
07.03.2013 04:15 0,5 C 10,3 C 1,1 C 2,0 C 2,0 C 1,5 C 87 % 89 % 0 % 1003,5 hPa 0,0 l/m 0,0 km/h (0 Bft) NO 45 0 min 0,0 UV-I -1,4 C 2,0 C 0,0 km/h (0 Bft)
07.03.2013 04:20 0,7 C 10,3 C 1,1 C 2,4 C 2,4 C 1,7 C 87 % 89 % 0 % 1003,2 hPa 0,0 l/m 0,0 km/h (0 Bft) W-SW 247 0 min 0,0 UV-I -1,2 C 2,4 C 1,9 km/h (1 Bft)
07.03.2013 04:25 0,7 C 10,3 C 0,9 C 2,3 C 2,3 C 1,6 C 86 % 88 % 0 % 1003,2 hPa 0,0 l/m 0,0 km/h (0 Bft) W-NW 292 0 min 0,0 UV-I -1,4 C 2,3 C 0,0 km/h (0 Bft)
07.03.2013 04:30 0,6 C 10,3 C 0,9 C 2,3 C 2,3 C 1,7 C 86 % 88 % 0 % 1003,2 hPa 0,0 l/m 0,0 km/h (0 Bft) SW 225 0 min 0,0 UV-I -1,5 C 2,3 C 0,0 km/h (0 Bft)
07.03.2013 04:35 0,5 C 10,3 C 0,9 C 2,3 C 2,3 C 1,8 C 86 % 88 % 0 % 1003,2 hPa 0,0 l/m 0,0 km/h (0 Bft) S-SO 157 0 min 0,0 UV-I -1,6 C 2,3 C 0,0 km/h (0 Bft)
07.03.2013 04:40 0,5 C 10,3 C 1,0 C 2,3 C 2,3 C 1,8 C 86 % 88 % 0 % 1003,2 hPa 0,0 l/m 0,0 km/h (0 Bft) N-NO 22 0 min 0,0 UV-I -1,6 C 2,3 C 0,0 km/h (0 Bft)
07.03.2013 04:45 0,6 C 10,3 C 1,1 C 2,9 C 2,9 C 2,3 C 86 % 89 % 0 % 1003,2 hPa 0,0 l/m 0,0 km/h (0 Bft) NO 45 0 min 0,0 UV-I -1,5 C 2,9 C 0,0 km/h (0 Bft)
07.03.2013 04:50 0,8 C 10,3 C 1,3 C 3,0 C 3,0 C 2,2 C 86 % 89 % 0 % 1003,2 hPa 0,0 l/m 0,2 km/h (0 Bft) O-SO 112 0 min 0,0 UV-I -1,3 C 3,0 C 0,0 km/h (0 Bft)
07.03.2013 04:55 1,3 C 10,3 C 1,5 C 3,3 C 3,3 C 2,0 C 87 % 89 % 0 % 1003,2 hPa 0,0 l/m 0,2 km/h (0 Bft) NO 45 0 min 0,0 UV-I -0,6 C 3,3 C 0,0 km/h (0 Bft)
07.03.2013 05:00 1,5 C 10,3 C 1,7 C 3,6 C 3,6 C 2,1 C 87 % 89 % 0 % 1003,1 hPa 0,0 l/m 0,2 km/h (0 Bft) O 90 0 min 0,0 UV-I -0,4 C 3,6 C 0,0 km/h (0 Bft)
07.03.2013 05:05 1,7 C 10,3 C 1,9 C 3,7 C 3,7 C 2,0 C 87 % 89 % 0 % 1003,1 hPa 0,0 l/m 0,2 km/h (0 Bft) O-NO 67 0 min 0,0 UV-I -0,2 C 3,7 C 0,0 km/h (0 Bft)
07.03.2013 05:10 1,9 C 10,3 C 2,0 C 3,9 C 3,9 C 2,0 C 87 % 89 % 0 % 1003,1 hPa 0,0 l/m 0,0 km/h (0 Bft) NO 45 0 min 0,0 UV-I -0,0 C 3,9 C 0,0 km/h (0 Bft)
07.03.2013 05:15 2,3 C 10,3 C 2,5 C 4,1 C 4,1 C 1,8 C 87 % 89 % 0 % 1003,1 hPa 0,0 l/m 0,2 km/h (0 Bft) O-SO 112 0 min 0,0 UV-I 0,4 C 4,1 C 0,0 km/h (0 Bft)
07.03.2013 05:20 2,7 C 9,6 C 2,6 C 4,4 C 4,4 C 1,7 C 87 % 89 % 0 % 1003,1 hPa 0,0 l/m 0,3 km/h (0 Bft) O-NO 67 0 min 0,0 UV-I 0,8 C 4,4 C 0,0 km/h (0 Bft)
07.03.2013 05:25 2,7 C 9,5 C 2,4 C 4,4 C 4,4 C 1,7 C 86 % 89 % 0 % 1003,1 hPa 0,0 l/m 0,0 km/h (0 Bft) O-NO 67 0 min 0,0 UV-I 0,6 C 4,4 C 0,0 km/h (0 Bft)
07.03.2013 05:30 2,8 C 9,5 C 2,5 C 4,3 C 4,3 C 1,5 C 85 % 89 % 0 % 1003,1 hPa 0,0 l/m 0,0 km/h (0 Bft) NO 45 0 min 0,0 UV-I 0,5 C 4,3 C 0,0 km/h (0 Bft)
07.03.2013 05:35 2,8 C 9,5 C 2,4 C 4,2 C 4,2 C 1,4 C 85 % 89 % 0 % 1003,1 hPa 0,0 l/m 0,0 km/h (0 Bft) NO 45 0 min 0,0 UV-I 0,5 C 4,2 C 0,0 km/h (0 Bft)
07.03.2013 05:40 2,8 C 9,5 C 2,5 C 4,1 C 4,1 C 1,3 C 85 % 88 % 0 % 1003,1 hPa 0,0 l/m 0,0 km/h (0 Bft) O-NO 67 0 min 0,0 UV-I 0,5 C 4,1 C 0,0 km/h (0 Bft)
07.03.2013 05:45 2,9 C 9,5 C 2,5 C 4,1 C 4,1 C 1,2 C 84 % 88 % 0 % 1003,1 hPa 0,0 l/m 0,0 km/h (0 Bft) N-NW 337 0 min 0,0 UV-I 0,5 C 4,1 C 0,0 km/h (0 Bft)
07.03.2013 05:50 2,9 C 9,5 C 2,6 C 4,1 C 4,1 C 1,2 C 84 % 88 % 0 % 1003,1 hPa 0,0 l/m 0,0 km/h (0 Bft) N 360 0 min 0,0 UV-I 0,5 C 4,1 C 0,0 km/h (0 Bft)
07.03.2013 05:55 2,9 C 9,5 C 2,7 C 4,1 C 4,1 C 1,2 C 84 % 88 % 0 % 1003,1 hPa 0,0 l/m 0,0 km/h (0 Bft) N 360 0 min 0,0 UV-I 0,5 C 4,1 C 0,0 km/h (0 Bft)
07.03.2013 06:00 2,9 C 9,5 C 2,7 C 4,0 C 4,0 C 1,1 C 84 % 88 % 0 % 1002,8 hPa 0,0 l/m 0,0 km/h (0 Bft) N 360 0 min 0,0 UV-I 0,5 C 4,0 C 0,0 km/h (0 Bft)
07.03.2013 06:05 2,9 C 9,5 C 2,6 C 3,9 C 3,9 C 1,0 C 84 % 88 % 0 % 1002,8 hPa 0,0 l/m 0,0 km/h (0 Bft) N 360 0 min 0,0 UV-I 0,5 C 3,9 C 0,0 km/h (0 Bft)
07.03.2013 06:10 2,8 C 9,5 C 2,4 C 3,7 C 3,7 C 0,9 C 84 % 88 % 0 % 1002,8 hPa 0,0 l/m 0,0 km/h (0 Bft) W-NW 292 0 min 0,0 UV-I 0,4 C 3,7 C 0,0 km/h (0 Bft)
07.03.2013 06:15 2,8 C 9,5 C 2,4 C 3,6 C 3,6 C 0,8 C 84 % 88 % 0 % 1002,8 hPa 0,0 l/m 0,0 km/h (0 Bft) N-NO 22 0 min 0,0 UV-I 0,4 C 3,6 C 0,0 km/h (0 Bft)
07.03.2013 06:20 2,7 C 9,5 C 2,3 C 3,5 C 3,5 C 0,8 C 84 % 88 % 0 % 1003,1 hPa 0,0 l/m 0,2 km/h (0 Bft) N-NO 22 0 min 0,0 UV-I 0,3 C 3,5 C 1,8 km/h (1 Bft)
07.03.2013 06:25 2,7 C 9,5 C 2,4 C 3,5 C 3,5 C 0,8 C 84 % 88 % 0 % 1003,1 hPa 0,0 l/m 0,3 km/h (0 Bft) N-NO 22 0 min 0,0 UV-I 0,3 C 3,5 C 0,0 km/h (0 Bft)
07.03.2013 06:30 2,7 C 9,5 C 2,4 C 3,5 C 3,5 C 0,8 C 84 % 88 % 0 % 1003,1 hPa 0,0 l/m 0,2 km/h (0 Bft) N-NO 22 0 min 0,0 UV-I 0,3 C 3,5 C 0,0 km/h (0 Bft)
07.03.2013 06:35 2,7 C 9,5 C 2,4 C 3,5 C 3,5 C 0,8 C 84 % 88 % 0 % 1003,1 hPa 0,0 l/m 0,2 km/h (0 Bft) W 270 0 min 0,0 UV-I 0,3 C 3,5 C 0,0 km/h (0 Bft)
07.03.2013 06:46 2,7 C 9,5 C 2,4 C 3,5 C 3,5 C 0,8 C 84 % 88 % 0 % 1003,3 hPa 0,0 l/m 0,0 km/h (0 Bft) N 0 0 min 0,0 UV-I 0,3 C 3,5 C 0,0 km/h (0 Bft)
07.03.2013 06:55 2,5 C 9,5 C 2,4 C 3,5 C 3,5 C 1,0 C 84 % 88 % 26 % 1003,3 hPa 0,0 l/m 0,2 km/h (0 Bft) W-SW 247 9 min 0,0 UV-I 0,1 C 3,5 C 2,6 km/h (1 Bft)
07.03.2013 07:00 2,5 C 9,5 C 2,3 C 3,1 C 3,1 C 0,6 C 83 % 88 % 16 % 1003,2 hPa 0,0 l/m 0,5 km/h (0 Bft) W 270 5 min 0,0 UV-I -0,1 C 3,1 C 0,0 km/h (0 Bft)
07.03.2013 07:05 2,2 C 9,5 C 2,3 C 3,0 C 3,0 C 0,8 C 84 % 88 % 21 % 1003,2 hPa 0,0 l/m 0,3 km/h (0 Bft) O 90 5 min 0,0 UV-I -0,2 C 3,0 C 0,0 km/h (0 Bft)
07.03.2013 07:10 2,3 C 9,5 C 2,2 C 3,2 C 3,2 C 0,9 C 84 % 88 % 24 % 1003,2 hPa 0,0 l/m 0,0 km/h (0 Bft) SW 225 5 min 0,0 UV-I -0,1 C 3,2 C 0,0 km/h (0 Bft)
07.03.2013 07:15 2,2 C 9,5 C 2,2 C 3,2 C 3,2 C 1,0 C 84 % 88 % 26 % 1003,2 hPa 0,0 l/m 0,2 km/h (0 Bft) S 180 5 min 0,0 UV-I -0,2 C 3,2 C 0,0 km/h (0 Bft)
07.03.2013 07:20 2,2 C 9,5 C 2,3 C 3,2 C 3,2 C 1,0 C 84 % 88 % 26 % 1003,6 hPa 0,0 l/m 0,3 km/h (0 Bft) O-NO 67 5 min 0,0 UV-I -0,2 C 3,2 C 1,8 km/h (1 Bft)
07.03.2013 07:25 2,3 C 9,5 C 2,4 C 3,4 C 3,4 C 1,1 C 85 % 88 % 29 % 1003,6 hPa 0,0 l/m 0,3 km/h (0 Bft) SW 225 5 min 0,0 UV-I 0,0 C 3,4 C 2,6 km/h (1 Bft)
07.03.2013 07:30 2,3 C 9,5 C 2,4 C 3,4 C 3,4 C 1,1 C 84 % 88 % 29 % 1003,6 hPa 0,0 l/m 0,3 km/h (0 Bft) W-SW 247 0 min 0,0 UV-I -0,1 C 3,4 C 0,0 km/h (0 Bft)
07.03.2013 07:35 2,3 C 9,5 C 2,4 C 3,5 C 3,5 C 1,2 C 85 % 88 % 32 % 1003,6 hPa 0,0 l/m 0,2 km/h (0 Bft) W-SW 247 0 min 0,0 UV-I 0,0 C 3,5 C 0,0 km/h (0 Bft)
07.03.2013 07:40 2,3 C 9,5 C 2,5 C 3,6 C 3,6 C 1,3 C 85 % 88 % 34 % 1003,4 hPa 0,0 l/m 0,0 km/h (0 Bft) O-SO 112 0 min 0,0 UV-I 0,0 C 3,6 C 0,0 km/h (0 Bft)
07.03.2013 07:45 2,4 C 9,5 C 2,9 C 4,0 C 4,0 C 1,6 C 85 % 89 % 42 % 1003,4 hPa 0,0 l/m 0,2 km/h (0 Bft) O-NO 67 5 min 0,0 UV-I 0,1 C 4,0 C 1,6 km/h (1 Bft)
07.03.2013 07:50 2,7 C 9,5 C 3,1 C 4,2 C 4,2 C 1,5 C 86 % 89 % 39 % 1003,4 hPa 0,0 l/m 0,6 km/h (0 Bft) NO 45 0 min 0,0 UV-I 0,6 C 4,2 C 2,1 km/h (1 Bft)
07.03.2013 07:55 2,9 C 9,5 C 3,3 C 4,4 C 4,4 C 1,5 C 86 % 89 % 39 % 1003,4 hPa 0,0 l/m 1,0 km/h (0 Bft) O-NO 67 0 min 0,0 UV-I 0,8 C 4,4 C 0,0 km/h (0 Bft)
07.03.2013 08:00 3,1 C 9,5 C 3,5 C 4,8 C 4,8 C 1,7 C 85 % 88 % 45 % 1003,5 hPa 0,0 l/m 0,6 km/h (0 Bft) S-SO 157 0 min 0,0 UV-I 0,8 C 4,8 C 0,0 km/h (0 Bft)
07.03.2013 08:05 3,2 C 9,5 C 3,5 C 5,0 C 5,0 C 1,8 C 85 % 88 % 47 % 1003,5 hPa 0,0 l/m 0,3 km/h (0 Bft) NO 45 0 min 0,0 UV-I 0,9 C 5,0 C 2,7 km/h (1 Bft)
07.03.2013 08:10 3,2 C 9,5 C 3,6 C 5,2 C 5,2 C 2,0 C 85 % 88 % 53 % 1003,5 hPa 0,0 l/m 0,0 km/h (0 Bft) O-NO 67 0 min 0,0 UV-I 0,9 C 5,2 C 0,0 km/h (0 Bft)
07.03.2013 08:15 3,5 C 9,5 C 3,9 C 5,3 C 5,3 C 1,8 C 85 % 88 % 47 % 1003,5 hPa 0,0 l/m 0,0 km/h (0 Bft) O-SO 112 0 min 0,0 UV-I 1,2 C 5,3 C 0,0 km/h (0 Bft)
07.03.2013 08:20 3,5 C 9,5 C 4,0 C 5,4 C 5,4 C 1,9 C 85 % 88 % 50 % 1003,3 hPa 0,0 l/m 0,5 km/h (0 Bft) SO 135 0 min 0,0 UV-I 1,2 C 5,4 C 0,0 km/h (0 Bft)
07.03.2013 08:25 3,7 C 9,5 C 4,0 C 5,6 C 5,6 C 1,9 C 85 % 88 % 50 % 1003,3 hPa 0,0 l/m 0,3 km/h (0 Bft) N-NW 337 0 min 0,0 UV-I 1,4 C 5,6 C 3,4 km/h (1 Bft)
07.03.2013 08:30 3,7 C 9,5 C 4,1 C 5,8 C 5,8 C 2,1 C 85 % 88 % 55 % 1003,3 hPa 0,0 l/m 0,0 km/h (0 Bft) N-NO 22 0 min 0,0 UV-I 1,4 C 5,8 C 0,0 km/h (0 Bft)
07.03.2013 08:35 3,8 C 9,5 C 4,3 C 5,9 C 5,9 C 2,1 C 84 % 88 % 55 % 1003,3 hPa 0,0 l/m 0,2 km/h (0 Bft) O-NO 67 0 min 0,0 UV-I 1,4 C 5,9 C 1,9 km/h (1 Bft)
07.03.2013 08:40 4,0 C 9,5 C 4,4 C 6,1 C 6,1 C 2,1 C 84 % 87 % 55 % 1003,9 hPa 0,0 l/m 0,3 km/h (0 Bft) O 90 0 min 0,0 UV-I 1,5 C 6,1 C 0,0 km/h (0 Bft)
07.03.2013 08:45 4,1 C 9,5 C 4,7 C 6,3 C 6,3 C 2,2 C 84 % 87 % 58 % 1003,9 hPa 0,0 l/m 0,3 km/h (0 Bft) N-NW 337 0 min 0,0 UV-I 1,6 C 6,3 C 0,0 km/h (0 Bft)
07.03.2013 08:50 4,3 C 9,5 C 4,7 C 6,4 C 6,4 C 2,1 C 84 % 87 % 55 % 1003,9 hPa 0,0 l/m 0,3 km/h (0 Bft) N 360 0 min 0,0 UV-I 1,8 C 6,4 C 0,0 km/h (0 Bft)
07.03.2013 08:55 4,3 C 9,5 C 4,8 C 6,5 C 6,5 C 2,2 C 84 % 87 % 58 % 1003,9 hPa 0,0 l/m 0,5 km/h (0 Bft) N-NO 22 0 min 0,0 UV-I 1,8 C 6,5 C 0,0 km/h (0 Bft)
07.03.2013 09:00 4,5 C 9,5 C 4,9 C 6,6 C 6,6 C 2,1 C 84 % 86 % 55 % 1003,7 hPa 0,0 l/m 0,3 km/h (0 Bft) O-NO 67 0 min 0,0 UV-I 2,0 C 6,6 C 1,9 km/h (1 Bft)
07.03.2013 09:05 4,7 C 9,4 C 5,1 C 6,8 C 6,8 C 2,1 C 84 % 86 % 55 % 1003,7 hPa 0,0 l/m 1,1 km/h (1 Bft) O-NO 67 0 min 0,0 UV-I 2,2 C 6,8 C 1,6 km/h (1 Bft)
07.03.2013 09:10 4,7 C 9,4 C 5,3 C 6,9 C 6,9 C 2,2 C 84 % 86 % 58 % 1003,7 hPa 0,0 l/m 1,6 km/h (1 Bft) O-SO 112 0 min 0,0 UV-I 2,2 C 6,9 C 2,1 km/h (1 Bft)
07.03.2013 09:15 4,8 C 9,4 C 5,5 C 7,0 C 7,0 C 2,2 C 84 % 86 % 58 % 1003,7 hPa 0,0 l/m 1,9 km/h (1 Bft) O-NO 67 0 min 0,0 UV-I 2,3 C 7,0 C 3,9 km/h (1 Bft)
07.03.2013 09:20 5,0 C 9,4 C 5,5 C 7,2 C 7,2 C 2,2 C 84 % 86 % 58 % 1003,5 hPa 0,0 l/m 1,8 km/h (1 Bft) NO 45 0 min 0,0 UV-I 2,5 C 7,2 C 0,0 km/h (0 Bft)
07.03.2013 09:25 5,1 C 9,4 C 5,9 C 7,6 C 7,6 C 2,5 C 84 % 86 % 66 % 1003,5 hPa 0,0 l/m 0,3 km/h (0 Bft) SO 135 0 min 0,0 UV-I 2,6 C 7,6 C 0,0 km/h (0 Bft)
07.03.2013 09:30 5,2 C 9,3 C 6,0 C 7,8 C 7,8 C 2,6 C 84 % 86 % 68 % 1003,5 hPa 0,0 l/m 0,0 km/h (0 Bft) O-SO 112 0 min 0,1 UV-I 2,7 C 7,8 C 0,0 km/h (0 Bft)
07.03.2013 09:35 5,5 C 9,4 C 6,2 C 8,1 C 8,1 C 2,6 C 83 % 86 % 68 % 1003,5 hPa 0,0 l/m 1,1 km/h (1 Bft) NW 315 0 min 0,1 UV-I 2,8 C 8,1 C 4,8 km/h (1 Bft)
07.03.2013 09:40 5,6 C 9,3 C 6,4 C 8,3 C 8,3 C 2,7 C 83 % 85 % 71 % 1003,9 hPa 0,0 l/m 1,9 km/h (1 Bft) N 360 0 min 0,1 UV-I 2,9 C 8,3 C 0,0 km/h (0 Bft)
07.03.2013 09:45 5,7 C 9,2 C 6,7 C 8,7 C 8,7 C 3,0 C 83 % 85 % 79 % 1003,9 hPa 0,0 l/m 1,0 km/h (0 Bft) O-NO 67 0 min 0,2 UV-I 3,0 C 8,7 C 0,0 km/h (0 Bft)
07.03.2013 09:50 6,0 C 9,2 C 6,8 C 9,0 C 9,0 C 3,0 C 83 % 85 % 79 % 1003,9 hPa 0,0 l/m 0,2 km/h (0 Bft) O-NO 67 0 min 0,2 UV-I 3,3 C 9,0 C 0,0 km/h (0 Bft)
07.03.2013 09:55 6,3 C 9,2 C 6,9 C 9,3 C 9,3 C 3,0 C 82 % 84 % 79 % 1003,9 hPa 0,0 l/m 0,3 km/h (0 Bft) O 90 0 min 0,2 UV-I 3,5 C 9,3 C 2,9 km/h (1 Bft)
07.03.2013 10:00 6,4 C 9,2 C 7,1 C 9,5 C 9,5 C 3,1 C 82 % 84 % 82 % 1003,8 hPa 0,0 l/m 0,5 km/h (0 Bft) O-NO 67 0 min 0,3 UV-I 3,6 C 9,5 C 0,0 km/h (0 Bft)
07.03.2013 10:05 6,5 C 9,2 C 7,2 C 9,7 C 9,7 C 3,2 C 82 % 84 % 84 % 1003,8 hPa 0,0 l/m 0,5 km/h (0 Bft) N 360 0 min 0,3 UV-I 3,7 C 9,7 C 1,6 km/h (1 Bft)
07.03.2013 10:10 6,6 C 9,2 C 7,3 C 9,8 C 9,8 C 3,2 C 82 % 83 % 84 % 1003,8 hPa 0,0 l/m 1,1 km/h (1 Bft) O-SO 112 0 min 0,3 UV-I 3,8 C 9,8 C 1,9 km/h (1 Bft)
07.03.2013 10:15 6,8 C 9,3 C 7,3 C 9,7 C 9,7 C 2,9 C 81 % 83 % 76 % 1003,8 hPa 0,0 l/m 1,8 km/h (1 Bft) O-SO 112 0 min 0,4 UV-I 3,8 C 9,7 C 3,5 km/h (1 Bft)
07.03.2013 10:20 6,8 C 9,3 C 7,5 C 9,7 C 9,7 C 2,9 C 81 % 83 % 76 % 1003,6 hPa 0,0 l/m 1,6 km/h (1 Bft) SO 135 0 min 0,4 UV-I 3,8 C 9,7 C 3,1 km/h (1 Bft)
07.03.2013 10:25 6,8 C 9,3 C 7,5 C 9,6 C 9,6 C 2,8 C 81 % 83 % 74 % 1003,6 hPa 0,0 l/m 1,4 km/h (1 Bft) O-SO 112 0 min 0,4 UV-I 3,8 C 9,6 C 2,7 km/h (1 Bft)
07.03.2013 10:30 6,9 C 9,3 C 7,6 C 9,6 C 9,6 C 2,7 C 81 % 83 % 71 % 1003,6 hPa 0,0 l/m 1,6 km/h (1 Bft) O-NO 67 0 min 0,4 UV-I 3,9 C 9,6 C 0,0 km/h (0 Bft)
07.03.2013 10:35 7,1 C 9,3 C 7,8 C 9,8 C 9,8 C 2,7 C 80 % 83 % 71 % 1003,6 hPa 0,0 l/m 1,0 km/h (0 Bft) O 90 0 min 0,4 UV-I 3,9 C 9,8 C 0,0 km/h (0 Bft)
07.03.2013 10:40 7,1 C 9,3 C 8,0 C 10,0 C 10,0 C 2,9 C 80 % 82 % 76 % 1003,7 hPa 0,0 l/m 1,0 km/h (0 Bft) O 90 0 min 0,5 UV-I 3,9 C 10,0 C 0,0 km/h (0 Bft)
07.03.2013 10:45 7,2 C 9,3 C 8,3 C 10,1 C 10,1 C 2,9 C 80 % 82 % 76 % 1003,7 hPa 0,0 l/m 1,4 km/h (1 Bft) O-NO 67 0 min 0,5 UV-I 4,0 C 10,1 C 5,1 km/h (1 Bft)
07.03.2013 10:50 7,3 C 9,3 C 8,2 C 10,0 C 10,0 C 2,7 C 79 % 81 % 71 % 1003,7 hPa 0,0 l/m 1,9 km/h (1 Bft) O-SO 112 0 min 0,4 UV-I 3,9 C 10,0 C 2,4 km/h (1 Bft)
07.03.2013 10:55 7,5 C 9,3 C 8,3 C 10,0 C 10,0 C 2,5 C 80 % 81 % 66 % 1003,7 hPa 0,0 l/m 2,4 km/h (1 Bft) O-NO 67 0 min 0,4 UV-I 4,3 C 10,0 C 5,3 km/h (1 Bft)
07.03.2013 11:00 7,6 C 9,3 C 8,3 C 10,1 C 10,1 C 2,5 C 80 % 81 % 66 % 1003,8 hPa 0,0 l/m 2,1 km/h (1 Bft) O-NO 67 0 min 0,4 UV-I 4,4 C 10,1 C 3,2 km/h (1 Bft)
07.03.2013 11:05 7,7 C 9,3 C 8,3 C 10,1 C 10,1 C 2,4 C 79 % 81 % 63 % 1003,8 hPa 0,0 l/m 2,4 km/h (1 Bft) O-NO 67 0 min 0,4 UV-I 4,3 C 10,1 C 2,3 km/h (1 Bft)
07.03.2013 11:10 7,8 C 9,4 C 8,3 C 10,0 C 10,0 C 2,2 C 79 % 81 % 58 % 1003,8 hPa 0,0 l/m 2,3 km/h (1 Bft) O 90 0 min 0,3 UV-I 4,4 C 10,0 C 2,4 km/h (1 Bft)
07.03.2013 11:15 7,9 C 9,4 C 8,3 C 10,0 C 10,0 C 2,1 C 79 % 81 % 55 % 1003,8 hPa 0,0 l/m 2,4 km/h (1 Bft) O-NO 67 0 min 0,4 UV-I 4,5 C 10,0 C 3,5 km/h (1 Bft)
07.03.2013 11:20 7,9 C 9,4 C 8,5 C 10,0 C 10,0 C 2,1 C 79 % 81 % 55 % 1003,9 hPa 0,0 l/m 1,9 km/h (1 Bft) O 90 0 min 0,4 UV-I 4,5 C 10,0 C 0,0 km/h (0 Bft)
07.03.2013 11:25 8,1 C 9,4 C 8,6 C 10,1 C 10,1 C 2,0 C 79 % 81 % 53 % 1003,9 hPa 0,0 l/m 2,3 km/h (1 Bft) N-NW 337 0 min 0,5 UV-I 4,7 C 10,1 C 3,7 km/h (1 Bft)
07.03.2013 11:30 8,0 C 9,4 C 8,7 C 10,2 C 10,2 C 2,2 C 79 % 81 % 58 % 1003,9 hPa 0,0 l/m 2,3 km/h (1 Bft) O-SO 112 0 min 0,5 UV-I 4,6 C 10,2 C 0,0 km/h (0 Bft)
07.03.2013 11:35 8,1 C 9,4 C 8,7 C 10,4 C 10,4 C 2,3 C 78 % 81 % 61 % 1003,9 hPa 0,0 l/m 1,9 km/h (1 Bft) O-NO 67 0 min 0,5 UV-I 4,5 C 10,4 C 3,1 km/h (1 Bft)
07.03.2013 11:40 8,2 C 9,4 C 8,7 C 10,5 C 10,5 C 2,3 C 79 % 81 % 61 % 1003,8 hPa 0,0 l/m 1,9 km/h (1 Bft) O-NO 67 0 min 0,5 UV-I 4,8 C 10,5 C 3,4 km/h (1 Bft)
07.03.2013 11:45 8,2 C 9,5 C 8,7 C 10,4 C 10,4 C 2,2 C 78 % 80 % 58 % 1003,8 hPa 0,0 l/m 3,2 km/h (1 Bft) O-SO 112 0 min 0,5 UV-I 4,6 C 10,4 C 4,7 km/h (1 Bft)
07.03.2013 11:50 8,3 C 9,5 C 8,7 C 10,3 C 10,3 C 2,0 C 78 % 80 % 53 % 1003,8 hPa 0,0 l/m 3,7 km/h (1 Bft) O-NO 67 0 min 0,5 UV-I 4,7 C 10,3 C 3,4 km/h (1 Bft)
07.03.2013 11:55 8,3 C 9,5 C 8,7 C 10,4 C 10,4 C 2,1 C 78 % 81 % 55 % 1003,8 hPa 0,0 l/m 3,5 km/h (1 Bft) O-NO 67 0 min 0,5 UV-I 4,7 C 10,4 C 5,6 km/h (1 Bft)
07.03.2013 12:00 8,5 C 9,5 C 8,8 C 10,6 C 10,6 C 2,1 C 78 % 81 % 55 % 1003,6 hPa 0,0 l/m 3,4 km/h (1 Bft) O-NO 67 0 min 0,6 UV-I 4,9 C 10,6 C 4,8 km/h (1 Bft)
07.03.2013 12:05 8,5 C 9,5 C 9,0 C 10,8 C 10,8 C 2,3 C 78 % 80 % 61 % 1003,6 hPa 0,0 l/m 3,9 km/h (1 Bft) O 90 0 min 0,7 UV-I 4,9 C 10,8 C 6,0 km/h (2 Bft)
07.03.2013 12:10 8,6 C 9,5 C 9,2 C 11,1 C 11,1 C 2,5 C 78 % 80 % 66 % 1003,6 hPa 0,0 l/m 4,2 km/h (1 Bft) O-SO 112 0 min 0,7 UV-I 5,0 C 11,1 C 4,2 km/h (1 Bft)
07.03.2013 12:15 8,8 C 9,5 C 9,3 C 11,2 C 11,2 C 2,4 C 78 % 79 % 63 % 1003,6 hPa 0,0 l/m 4,3 km/h (1 Bft) NO 45 0 min 0,8 UV-I 5,2 C 11,2 C 7,1 km/h (2 Bft)
07.03.2013 12:20 8,8 C 9,5 C 9,3 C 11,3 C 11,3 C 2,5 C 77 % 79 % 66 % 1003,5 hPa 0,0 l/m 4,7 km/h (1 Bft) O-SO 112 0 min 0,8 UV-I 5,0 C 11,3 C 4,5 km/h (1 Bft)
07.03.2013 12:25 8,8 C 9,5 C 9,3 C 10,9 C 10,9 C 2,1 C 77 % 79 % 55 % 1003,5 hPa 0,0 l/m 5,1 km/h (1 Bft) O 90 0 min 0,7 UV-I 5,0 C 10,9 C 8,5 km/h (2 Bft)
07.03.2013 12:30 8,9 C 9,5 C 9,5 C 10,9 C 10,9 C 2,0 C 77 % 79 % 53 % 1003,5 hPa 0,0 l/m 5,3 km/h (1 Bft) O-NO 67 0 min 0,7 UV-I 5,1 C 10,9 C 5,0 km/h (1 Bft)
07.03.2013 12:35 9,1 C 9,6 C 9,5 C 11,1 C 11,1 C 2,0 C 77 % 79 % 53 % 1003,5 hPa 0,0 l/m 4,8 km/h (1 Bft) O 90 0 min 0,6 UV-I 5,3 C 11,1 C 8,9 km/h (2 Bft)
07.03.2013 12:46 9,2 C 9,6 C 9,6 C 11,3 C 11,3 C 2,1 C 77 % 79 % 55 % 1003,3 hPa 0,0 l/m 3,2 km/h (1 Bft) N 0 0 min 0,6 UV-I 5,4 C 11,3 C 2,3 km/h (1 Bft)
07.03.2013 13:00 9,5 C 9,7 C 9,7 C 11,4 C 11,4 C 1,9 C 77 % 79 % 50 % 1003,1 hPa 0,0 l/m 1,9 km/h (1 Bft) O-NO 67 0 min 0,4 UV-I 5,7 C 11,4 C 1,6 km/h (1 Bft)
07.03.2013 13:05 9,6 C 9,7 C 9,7 C 11,4 C 11,4 C 1,8 C 76 % 79 % 47 % 1003,1 hPa 0,0 l/m 1,9 km/h (1 Bft) O 90 0 min 0,4 UV-I 5,6 C 11,4 C 4,7 km/h (1 Bft)
07.03.2013 13:10 9,6 C 9,7 C 9,7 C 11,3 C 11,3 C 1,7 C 76 % 78 % 45 % 1003,1 hPa 0,0 l/m 2,9 km/h (1 Bft) O-NO 67 0 min 0,3 UV-I 5,6 C 11,3 C 10,0 km/h (2 Bft)
07.03.2013 13:15 9,6 C 9,7 C 9,7 C 11,3 C 11,3 C 1,7 C 76 % 79 % 45 % 1003,1 hPa 0,0 l/m 4,2 km/h (1 Bft) O-NO 67 0 min 0,4 UV-I 5,6 C 11,3 C 5,3 km/h (1 Bft)
07.03.2013 13:20 9,7 C 9,7 C 9,9 C 11,3 C 11,3 C 1,6 C 76 % 79 % 42 % 1003,4 hPa 0,0 l/m 4,5 km/h (1 Bft) NO 45 0 min 0,4 UV-I 5,7 C 11,3 C 3,7 km/h (1 Bft)
07.03.2013 13:25 9,7 C 9,7 C 9,8 C 11,3 C 11,3 C 1,6 C 75 % 78 % 42 % 1003,4 hPa 0,0 l/m 4,0 km/h (1 Bft) O-NO 67 0 min 0,4 UV-I 5,5 C 11,3 C 4,3 km/h (1 Bft)
07.03.2013 13:30 9,8 C 9,8 C 9,8 C 11,3 C 11,3 C 1,5 C 76 % 78 % 39 % 1003,4 hPa 0,0 l/m 4,3 km/h (1 Bft) O 90 0 min 0,4 UV-I 5,8 C 11,3 C 3,1 km/h (1 Bft)
07.03.2013 13:35 9,8 C 9,8 C 10,0 C 11,4 C 11,4 C 1,6 C 76 % 79 % 42 % 1003,4 hPa 0,0 l/m 4,3 km/h (1 Bft) O-NO 67 0 min 0,4 UV-I 5,8 C 11,4 C 5,1 km/h (1 Bft)
07.03.2013 13:40 9,9 C 9,8 C 10,1 C 11,5 C 11,5 C 1,6 C 75 % 79 % 42 % 1003,3 hPa 0,0 l/m 4,0 km/h (1 Bft) O-NO 67 0 min 0,4 UV-I 5,7 C 11,5 C 3,2 km/h (1 Bft)
07.03.2013 13:45 10,1 C 9,8 C 10,1 C 11,6 C 11,6 C 1,5 C 75 % 79 % 39 % 1003,3 hPa 0,0 l/m 4,2 km/h (1 Bft) O-NO 67 0 min 0,4 UV-I 5,9 C 11,6 C 6,1 km/h (2 Bft)
07.03.2013 13:50 10,0 C 9,8 C 10,1 C 11,6 C 11,6 C 1,6 C 75 % 79 % 42 % 1003,3 hPa 0,0 l/m 3,7 km/h (1 Bft) NO 45 0 min 0,4 UV-I 5,8 C 11,6 C 4,3 km/h (1 Bft)
07.03.2013 13:55 10,0 C 9,9 C 10,1 C 11,6 C 11,6 C 1,6 C 75 % 79 % 42 % 1003,3 hPa 0,0 l/m 4,0 km/h (1 Bft) O 90 0 min 0,4 UV-I 5,8 C 11,6 C 6,8 km/h (2 Bft)
07.03.2013 14:00 10,1 C 9,9 C 10,3 C 11,6 C 11,6 C 1,5 C 75 % 79 % 39 % 1003,4 hPa 0,0 l/m 4,2 km/h (1 Bft) O-NO 67 0 min 0,4 UV-I 5,9 C 11,6 C 2,4 km/h (1 Bft)
07.03.2013 14:05 10,1 C 9,9 C 10,2 C 11,7 C 11,7 C 1,6 C 75 % 79 % 42 % 1003,4 hPa 0,0 l/m 4,2 km/h (1 Bft) O-NO 67 0 min 0,3 UV-I 5,9 C 11,7 C 2,7 km/h (1 Bft)
07.03.2013 14:10 10,2 C 9,9 C 10,2 C 11,7 C 11,7 C 1,5 C 75 % 79 % 39 % 1003,4 hPa 0,0 l/m 4,0 km/h (1 Bft) O-NO 67 0 min 0,3 UV-I 6,0 C 11,7 C 3,1 km/h (1 Bft)
07.03.2013 14:15 10,3 C 9,9 C 10,5 C 11,9 C 11,9 C 1,6 C 75 % 78 % 42 % 1003,4 hPa 0,0 l/m 3,7 km/h (1 Bft) O-NO 67 0 min 0,3 UV-I 6,1 C 11,9 C 8,0 km/h (2 Bft)
07.03.2013 14:20 10,4 C 9,9 C 10,6 C 12,1 C 12,1 C 1,7 C 75 % 78 % 45 % 1003,6 hPa 0,0 l/m 3,9 km/h (1 Bft) O-SO 112 0 min 0,4 UV-I 6,2 C 12,1 C 6,4 km/h (2 Bft)
07.03.2013 14:25 10,4 C 9,9 C 10,7 C 12,3 C 12,3 C 1,9 C 75 % 78 % 50 % 1003,6 hPa 0,0 l/m 4,0 km/h (1 Bft) N 360 0 min 0,4 UV-I 6,2 C 12,3 C 4,8 km/h (1 Bft)
07.03.2013 14:30 10,4 C 10,0 C 10,7 C 12,4 C 12,4 C 2,0 C 75 % 78 % 53 % 1003,6 hPa 0,0 l/m 3,7 km/h (1 Bft) NO 45 0 min 0,4 UV-I 6,2 C 12,4 C 2,6 km/h (1 Bft)
07.03.2013 14:35 10,3 C 10,0 C 10,7 C 12,4 C 12,4 C 2,1 C 76 % 78 % 55 % 1003,6 hPa 0,0 l/m 3,1 km/h (1 Bft) N-NW 337 0 min 0,4 UV-I 6,3 C 12,4 C 3,4 km/h (1 Bft)
07.03.2013 14:40 10,4 C 10,0 C 10,7 C 12,4 C 12,4 C 2,0 C 76 % 78 % 53 % 1003,3 hPa 0,0 l/m 2,7 km/h (1 Bft) NO 45 0 min 0,4 UV-I 6,4 C 12,4 C 2,9 km/h (1 Bft)
07.03.2013 14:45 10,3 C 10,0 C 10,5 C 12,4 C 12,4 C 2,1 C 76 % 78 % 55 % 1003,3 hPa 0,0 l/m 3,2 km/h (1 Bft) O-SO 112 0 min 0,3 UV-I 6,3 C 12,4 C 3,5 km/h (1 Bft)
07.03.2013 14:50 10,3 C 10,0 C 10,5 C 12,4 C 12,4 C 2,1 C 76 % 78 % 55 % 1003,3 hPa 0,0 l/m 3,2 km/h (1 Bft) N 360 0 min 0,3 UV-I 6,3 C 12,4 C 4,5 km/h (1 Bft)
07.03.2013 14:55 10,4 C 10,1 C 10,7 C 12,6 C 12,6 C 2,2 C 76 % 78 % 58 % 1003,3 hPa 0,0 l/m 2,6 km/h (1 Bft) O 90 0 min 0,3 UV-I 6,4 C 12,6 C 2,3 km/h (1 Bft)
07.03.2013 15:00 10,4 C 10,1 C 10,7 C 12,6 C 12,6 C 2,2 C 75 % 78 % 58 % 1003,4 hPa 0,0 l/m 3,4 km/h (1 Bft) O 90 0 min 0,3 UV-I 6,2 C 12,6 C 8,0 km/h (2 Bft)
07.03.2013 15:05 10,4 C 10,1 C 10,6 C 12,5 C 12,5 C 2,1 C 76 % 78 % 55 % 1003,4 hPa 0,0 l/m 4,0 km/h (1 Bft) O-NO 67 0 min 0,3 UV-I 6,4 C 12,5 C 3,2 km/h (1 Bft)
07.03.2013 15:10 10,4 C 10,1 C 10,8 C 12,6 C 12,6 C 2,2 C 76 % 79 % 58 % 1003,4 hPa 0,0 l/m 2,7 km/h (1 Bft) O-NO 67 0 min 0,3 UV-I 6,4 C 12,6 C 0,0 km/h (0 Bft)
07.03.2013 15:15 10,6 C 10,1 C 10,8 C 12,6 C 12,6 C 2,0 C 75 % 78 % 53 % 1003,4 hPa 0,0 l/m 1,3 km/h (1 Bft) O 90 0 min 0,2 UV-I 6,4 C 12,6 C 0,0 km/h (0 Bft)
07.03.2013 15:20 10,6 C 10,1 C 10,7 C 12,5 C 12,5 C 1,9 C 75 % 78 % 50 % 1003,5 hPa 0,0 l/m 1,9 km/h (1 Bft) O-NO 67 0 min 0,1 UV-I 6,4 C 12,5 C 4,3 km/h (1 Bft)
07.03.2013 15:25 10,5 C 10,1 C 10,5 C 12,1 C 12,1 C 1,6 C 75 % 77 % 42 % 1003,5 hPa 0,0 l/m 3,4 km/h (1 Bft) O-NO 67 0 min 0,1 UV-I 6,3 C 12,1 C 4,0 km/h (1 Bft)
07.03.2013 15:30 10,4 C 10,1 C 10,4 C 12,0 C 12,0 C 1,6 C 75 % 77 % 42 % 1003,5 hPa 0,0 l/m 3,5 km/h (1 Bft) O-NO 67 0 min 0,1 UV-I 6,2 C 12,0 C 4,0 km/h (1 Bft)
07.03.2013 15:35 10,4 C 10,2 C 10,5 C 11,9 C 11,9 C 1,5 C 75 % 78 % 39 % 1003,5 hPa 0,0 l/m 3,2 km/h (1 Bft) O-NO 67 0 min 0,1 UV-I 6,2 C 11,9 C 4,2 km/h (1 Bft)
07.03.2013 15:40 10,4 C 10,2 C 10,3 C 11,8 C 11,8 C 1,4 C 74 % 77 % 37 % 1003,4 hPa 0,0 l/m 3,5 km/h (1 Bft) O-NO 67 0 min 0,0 UV-I 6,0 C 11,8 C 3,7 km/h (1 Bft)
07.03.2013 15:45 10,3 C 10,2 C 10,2 C 11,5 C 11,5 C 1,2 C 75 % 78 % 32 % 1003,4 hPa 0,0 l/m 3,9 km/h (1 Bft) O-NO 67 0 min 0,0 UV-I 6,1 C 11,5 C 3,2 km/h (1 Bft)
07.03.2013 15:50 10,2 C 10,2 C 10,1 C 11,4 C 11,4 C 1,2 C 74 % 77 % 32 % 1003,4 hPa 0,0 l/m 3,9 km/h (1 Bft) O-NO 67 0 min 0,0 UV-I 5,8 C 11,4 C 5,3 km/h (1 Bft)
07.03.2013 15:55 10,1 C 10,2 C 10,1 C 11,3 C 11,3 C 1,2 C 74 % 78 % 32 % 1003,4 hPa 0,0 l/m 3,7 km/h (1 Bft) NO 45 0 min 0,0 UV-I 5,7 C 11,3 C 3,5 km/h (1 Bft)
07.03.2013 16:00 10,0 C 10,2 C 10,0 C 11,1 C 11,1 C 1,1 C 75 % 78 % 29 % 1003,6 hPa 0,0 l/m 3,2 km/h (1 Bft) O-NO 67 0 min 0,0 UV-I 5,8 C 11,1 C 3,5 km/h (1 Bft)
07.03.2013 16:05 9,9 C 10,3 C 9,9 C 10,8 C 10,8 C 0,9 C 75 % 78 % 24 % 1003,6 hPa 0,0 l/m 2,9 km/h (1 Bft) O-NO 67 0 min 0,0 UV-I 5,7 C 10,8 C 3,5 km/h (1 Bft)
07.03.2013 16:10 9,7 C 10,3 C 9,7 C 10,7 C 10,7 C 1,0 C 75 % 78 % 26 % 1003,6 hPa 0,0 l/m 3,2 km/h (1 Bft) O-NO 67 0 min 0,0 UV-I 5,5 C 10,7 C 5,8 km/h (2 Bft)
07.03.2013 16:15 9,5 C 10,3 C 9,5 C 10,4 C 10,4 C 0,9 C 75 % 78 % 24 % 1003,6 hPa 0,0 l/m 3,5 km/h (1 Bft) O-NO 67 0 min 0,0 UV-I 5,3 C 10,4 C 5,6 km/h (1 Bft)
07.03.2013 16:20 9,5 C 10,3 C 9,4 C 10,1 C 10,1 C 0,6 C 76 % 79 % 16 % 1003,6 hPa 0,0 l/m 4,0 km/h (1 Bft) O-NO 67 0 min 0,0 UV-I 5,5 C 10,1 C 3,7 km/h (1 Bft)
07.03.2013 16:25 9,2 C 10,3 C 9,2 C 9,9 C 9,9 C 0,7 C 76 % 79 % 18 % 1003,6 hPa 0,0 l/m 4,0 km/h (1 Bft) O-NO 67 0 min 0,0 UV-I 5,2 C 9,9 C 6,6 km/h (2 Bft)
07.03.2013 16:30 9,1 C 10,3 C 9,1 C 9,7 C 9,7 C 0,6 C 76 % 79 % 16 % 1003,6 hPa 0,0 l/m 4,5 km/h (1 Bft) O 90 0 min 0,0 UV-I 5,1 C 9,7 C 6,9 km/h (2 Bft)
07.03.2013 16:35 8,9 C 10,4 C 8,9 C 9,5 C 9,5 C 0,6 C 76 % 79 % 16 % 1003,6 hPa 0,0 l/m 4,3 km/h (1 Bft) O-NO 67 0 min 0,0 UV-I 4,9 C 9,5 C 3,7 km/h (1 Bft)
07.03.2013 16:40 8,8 C 10,5 C 8,7 C 9,2 C 9,2 C 0,4 C 76 % 80 % 11 % 1003,9 hPa 0,0 l/m 4,2 km/h (1 Bft) NO 45 0 min 0,0 UV-I 4,8 C 9,2 C 4,0 km/h (1 Bft)
07.03.2013 16:45 8,7 C 10,5 C 8,6 C 8,9 C 8,9 C 0,2 C 77 % 80 % 5 % 1003,9 hPa 0,0 l/m 4,2 km/h (1 Bft) O-NO 67 0 min 0,0 UV-I 4,9 C 8,9 C 6,3 km/h (2 Bft)
07.03.2013 16:50 8,4 C 10,5 C 8,4 C 8,5 C 8,5 C 0,1 C 77 % 80 % 3 % 1003,9 hPa 0,0 l/m 4,5 km/h (1 Bft) O-SO 112 0 min 0,0 UV-I 4,6 C 8,5 C 5,1 km/h (1 Bft)
07.03.2013 16:55 8,3 C 10,5 C 8,1 C 8,4 C 8,4 C 0,1 C 77 % 81 % 3 % 1003,9 hPa 0,0 l/m 4,5 km/h (1 Bft) O-NO 67 0 min 0,0 UV-I 4,5 C 8,4 C 4,5 km/h (1 Bft)
07.03.2013 17:00 8,1 C 10,5 C 8,0 C 8,4 C 8,4 C 0,3 C 77 % 81 % 8 % 1004,0 hPa 0,0 l/m 4,0 km/h (1 Bft) NO 45 0 min 0,0 UV-I 4,3 C 8,4 C 3,9 km/h (1 Bft)
07.03.2013 17:05 8,1 C 10,5 C 8,0 C 8,5 C 8,5 C 0,4 C 77 % 81 % 11 % 1004,0 hPa 0,0 l/m 3,5 km/h (1 Bft) O-NO 67 0 min 0,0 UV-I 4,3 C 8,5 C 4,5 km/h (1 Bft)
07.03.2013 17:10 8,0 C 10,5 C 7,8 C 8,4 C 8,4 C 0,4 C 78 % 82 % 11 % 1004,0 hPa 0,0 l/m 3,4 km/h (1 Bft) O-NO 67 0 min 0,0 UV-I 4,4 C 8,4 C 3,7 km/h (1 Bft)
07.03.2013 17:15 7,9 C 10,5 C 7,8 C 8,3 C 8,3 C 0,4 C 78 % 82 % 11 % 1004,0 hPa 0,0 l/m 3,4 km/h (1 Bft) NO 45 0 min 0,0 UV-I 4,3 C 8,3 C 3,4 km/h (1 Bft)
07.03.2013 17:20 7,8 C 10,6 C 7,6 C 8,2 C 8,2 C 0,4 C 78 % 82 % 11 % 1003,9 hPa 0,0 l/m 2,9 km/h (1 Bft) O-NO 67 0 min 0,0 UV-I 4,2 C 8,2 C 2,9 km/h (1 Bft)
07.03.2013 17:25 7,6 C 10,6 C 7,6 C 8,1 C 8,1 C 0,5 C 78 % 82 % 13 % 1003,9 hPa 0,0 l/m 2,1 km/h (1 Bft) O-NO 67 0 min 0,0 UV-I 4,0 C 8,1 C 2,9 km/h (1 Bft)
07.03.2013 17:30 7,6 C 10,6 C 7,5 C 8,0 C 8,0 C 0,4 C 79 % 82 % 11 % 1003,9 hPa 0,0 l/m 1,9 km/h (1 Bft) O-SO 112 0 min 0,0 UV-I 4,2 C 8,0 C 1,9 km/h (1 Bft)
07.03.2013 17:35 7,5 C 10,6 C 7,5 C 8,0 C 8,0 C 0,5 C 79 % 83 % 13 % 1003,9 hPa 0,0 l/m 1,9 km/h (1 Bft) O-NO 67 0 min 0,0 UV-I 4,1 C 8,0 C 3,1 km/h (1 Bft)
07.03.2013 17:40 7,5 C 10,6 C 7,3 C 7,9 C 7,9 C 0,4 C 79 % 83 % 11 % 1003,8 hPa 0,0 l/m 1,9 km/h (1 Bft) O-NO 67 5 min 0,0 UV-I 4,1 C 7,9 C 2,7 km/h (1 Bft)
07.03.2013 17:45 7,3 C 10,6 C 7,3 C 7,8 C 7,8 C 0,5 C 79 % 83 % 13 % 1003,8 hPa 0,0 l/m 1,3 km/h (1 Bft) O-NO 67 5 min 0,0 UV-I 3,9 C 7,8 C 0,0 km/h (0 Bft)
07.03.2013 17:50 7,3 C 10,7 C 7,3 C 7,7 C 7,7 C 0,4 C 79 % 83 % 0 % 1003,8 hPa 0,0 l/m 1,4 km/h (1 Bft) O-NO 67 0 min 0,0 UV-I 3,9 C 7,7 C 2,1 km/h (1 Bft)
07.03.2013 17:55 7,2 C 10,7 C 7,2 C 7,4 C 7,4 C 0,2 C 80 % 83 % 0 % 1003,8 hPa 0,0 l/m 1,6 km/h (1 Bft) O 90 0 min 0,0 UV-I 4,0 C 7,4 C 2,7 km/h (1 Bft)
07.03.2013 18:00 7,2 C 10,7 C 7,1 C 7,2 C 7,2 C 0,0 C 80 % 84 % 0 % 1004,1 hPa 0,0 l/m 1,4 km/h (1 Bft) NO 45 0 min 0,0 UV-I 4,0 C 7,2 C 2,3 km/h (1 Bft)
07.03.2013 18:05 7,0 C 10,7 C 7,0 C 7,2 C 7,2 C 0,2 C 80 % 84 % 0 % 1004,1 hPa 0,0 l/m 1,3 km/h (1 Bft) O-NO 67 0 min 0,0 UV-I 3,8 C 7,2 C 2,9 km/h (1 Bft)
07.03.2013 18:10 7,1 C 10,7 C 7,1 C 7,2 C 7,2 C 0,1 C 80 % 84 % 0 % 1004,1 hPa 0,0 l/m 1,4 km/h (1 Bft) NO 45 0 min 0,0 UV-I 3,9 C 7,2 C 3,1 km/h (1 Bft)
07.03.2013 18:15 6,9 C 10,8 C 7,0 C 7,2 C 7,2 C 0,3 C 81 % 84 % 0 % 1004,1 hPa 0,0 l/m 1,4 km/h (1 Bft) O-NO 67 0 min 0,0 UV-I 3,9 C 7,2 C 1,9 km/h (1 Bft)
07.03.2013 18:20 6,9 C 10,8 C 6,9 C 7,1 C 7,1 C 0,2 C 81 % 84 % 0 % 1004,4 hPa 0,0 l/m 1,8 km/h (1 Bft) O-NO 67 0 min 0,0 UV-I 3,9 C 7,1 C 2,9 km/h (1 Bft)
07.03.2013 18:25 6,9 C 10,9 C 6,9 C 6,9 C 6,9 C 0,0 C 81 % 85 % 0 % 1004,4 hPa 0,0 l/m 2,3 km/h (1 Bft) O-NO 67 0 min 0,0 UV-I 3,9 C 6,9 C 3,2 km/h (1 Bft)
07.03.2013 18:30 6,7 C 11,0 C 6,8 C 6,9 C 6,9 C 0,2 C 82 % 85 % 0 % 1004,4 hPa 0,0 l/m 2,6 km/h (1 Bft) O 90 0 min 0,0 UV-I 3,8 C 6,9 C 2,9 km/h (1 Bft)
07.03.2013 18:35 6,7 C 11,0 C 6,7 C 6,7 C 6,7 C 0,0 C 82 % 85 % 0 % 1004,4 hPa 0,0 l/m 2,6 km/h (1 Bft) O-NO 67 0 min 0,0 UV-I 3,8 C 6,7 C 2,6 km/h (1 Bft)
07.03.2013 18:41 6,5 C 11,0 C 6,7 C 6,6 C 6,6 C 0,1 C 82 % 85 % 0 % 1005,1 hPa 0,0 l/m 2,4 km/h (1 Bft) N 0 0 min 0,0 UV-I 3,7 C 6,6 C 2,3 km/h (1 Bft)
07.03.2013 19:00 6,3 C 11,0 C 6,4 C 6,4 C 6,4 C 0,1 C 83 % 86 % 0 % 1004,8 hPa 0,0 l/m 2,7 km/h (1 Bft) O-NO 67 0 min 0,0 UV-I 3,6 C 6,4 C 2,6 km/h (1 Bft)
07.03.2013 19:05 6,1 C 11,0 C 6,3 C 6,4 C 6,4 C 0,3 C 84 % 87 % 0 % 1004,8 hPa 0,0 l/m 2,6 km/h (1 Bft) O 90 0 min 0,0 UV-I 3,6 C 6,4 C 2,9 km/h (1 Bft)
07.03.2013 19:10 6,0 C 11,1 C 6,2 C 6,3 C 6,3 C 0,3 C 84 % 87 % 0 % 1004,8 hPa 0,0 l/m 2,6 km/h (1 Bft) O 90 0 min 0,0 UV-I 3,5 C 6,3 C 3,5 km/h (1 Bft)
07.03.2013 19:15 6,1 C 11,1 C 6,3 C 6,4 C 6,4 C 0,3 C 84 % 87 % 0 % 1004,8 hPa 0,0 l/m 2,7 km/h (1 Bft) O-NO 67 0 min 0,0 UV-I 3,6 C 6,4 C 2,9 km/h (1 Bft)
07.03.2013 19:20 5,9 C 11,1 C 6,1 C 6,3 C 6,3 C 0,4 C 84 % 87 % 0 % 1004,9 hPa 0,0 l/m 2,4 km/h (1 Bft) O-NO 67 0 min 0,0 UV-I 3,4 C 6,3 C 2,6 km/h (1 Bft)
07.03.2013 19:25 5,9 C 11,1 C 6,1 C 6,2 C 6,2 C 0,3 C 84 % 87 % 0 % 1004,9 hPa 0,0 l/m 2,4 km/h (1 Bft) O-NO 67 0 min 0,0 UV-I 3,4 C 6,2 C 3,1 km/h (1 Bft)
07.03.2013 19:30 5,9 C 11,1 C 6,1 C 6,2 C 6,2 C 0,3 C 84 % 87 % 0 % 1004,9 hPa 0,0 l/m 2,4 km/h (1 Bft) O-NO 67 0 min 0,0 UV-I 3,4 C 6,2 C 2,7 km/h (1 Bft)
07.03.2013 19:35 5,7 C 11,1 C 6,0 C 6,2 C 6,2 C 0,5 C 85 % 87 % 0 % 1004,9 hPa 0,0 l/m 2,4 km/h (1 Bft) O-NO 67 0 min 0,0 UV-I 3,4 C 6,2 C 2,9 km/h (1 Bft)
07.03.2013 19:40 5,7 C 11,1 C 6,0 C 6,1 C 6,1 C 0,4 C 85 % 87 % 0 % 1005,2 hPa 0,0 l/m 2,7 km/h (1 Bft) O-NO 67 0 min 0,0 UV-I 3,4 C 6,1 C 2,9 km/h (1 Bft)
07.03.2013 19:45 5,6 C 11,1 C 6,1 C 6,1 C 6,1 C 0,5 C 85 % 87 % 0 % 1005,2 hPa 0,0 l/m 2,6 km/h (1 Bft) O-NO 67 0 min 0,0 UV-I 3,3 C 6,1 C 2,7 km/h (1 Bft)
07.03.2013 19:50 5,7 C 11,1 C 6,0 C 6,1 C 6,1 C 0,4 C 85 % 88 % 0 % 1005,2 hPa 0,0 l/m 2,6 km/h (1 Bft) NO 45 0 min 0,0 UV-I 3,4 C 6,1 C 3,7 km/h (1 Bft)
07.03.2013 19:55 5,6 C 11,1 C 6,0 C 6,1 C 6,1 C 0,5 C 85 % 88 % 0 % 1005,2 hPa 0,0 l/m 2,7 km/h (1 Bft) O-NO 67 0 min 0,0 UV-I 3,3 C 6,1 C 3,7 km/h (1 Bft)
07.03.2013 20:00 5,5 C 11,1 C 6,0 C 6,1 C 6,1 C 0,6 C 86 % 88 % 0 % 1005,6 hPa 0,0 l/m 3,1 km/h (1 Bft) O 90 0 min 0,0 UV-I 3,3 C 6,1 C 4,7 km/h (1 Bft)
07.03.2013 20:05 5,5 C 11,1 C 6,0 C 6,1 C 6,1 C 0,6 C 86 % 88 % 0 % 1005,6 hPa 0,0 l/m 3,1 km/h (1 Bft) O 90 0 min 0,0 UV-I 3,3 C 6,1 C 4,0 km/h (1 Bft)
07.03.2013 20:10 5,5 C 11,1 C 5,9 C 6,1 C 6,1 C 0,6 C 86 % 88 % 0 % 1005,6 hPa 0,0 l/m 3,2 km/h (1 Bft) O-NO 67 0 min 0,0 UV-I 3,3 C 6,1 C 3,2 km/h (1 Bft)
07.03.2013 20:15 5,3 C 11,1 C 5,9 C 6,1 C 6,1 C 0,8 C 86 % 88 % 0 % 1005,6 hPa 0,0 l/m 3,2 km/h (1 Bft) O-NO 67 0 min 0,0 UV-I 3,2 C 6,1 C 2,9 km/h (1 Bft)
07.03.2013 20:20 5,3 C 11,1 C 5,8 C 6,0 C 6,0 C 0,7 C 86 % 88 % 0 % 1005,4 hPa 0,0 l/m 2,9 km/h (1 Bft) O-NO 67 0 min 0,0 UV-I 3,2 C 6,0 C 2,6 km/h (1 Bft)
07.03.2013 20:25 5,2 C 11,1 C 5,8 C 6,0 C 6,0 C 0,8 C 86 % 88 % 0 % 1005,4 hPa 0,0 l/m 2,4 km/h (1 Bft) O-NO 67 0 min 0,0 UV-I 3,1 C 6,0 C 3,5 km/h (1 Bft)
07.03.2013 20:30 5,3 C 11,1 C 5,9 C 6,0 C 6,0 C 0,7 C 86 % 89 % 0 % 1005,4 hPa 0,0 l/m 2,4 km/h (1 Bft) O-NO 67 0 min 0,0 UV-I 3,2 C 6,0 C 2,9 km/h (1 Bft)
07.03.2013 20:35 5,3 C 11,1 C 5,7 C 6,0 C 6,0 C 0,7 C 87 % 89 % 0 % 1005,4 hPa 0,0 l/m 2,6 km/h (1 Bft) O-NO 67 0 min 0,0 UV-I 3,3 C 6,0 C 2,6 km/h (1 Bft)
07.03.2013 20:40 5,1 C 11,1 C 5,7 C 5,9 C 5,9 C 0,8 C 87 % 89 % 0 % 1005,5 hPa 0,0 l/m 2,4 km/h (1 Bft) O 90 0 min 0,0 UV-I 3,1 C 5,9 C 2,7 km/h (1 Bft)
07.03.2013 20:45 5,1 C 11,1 C 5,7 C 5,9 C 5,9 C 0,8 C 87 % 89 % 0 % 1005,5 hPa 0,0 l/m 1,8 km/h (1 Bft) N-NO 22 0 min 0,0 UV-I 3,1 C 5,9 C 0,0 km/h (0 Bft)
07.03.2013 20:50 5,0 C 11,1 C 5,6 C 5,8 C 5,8 C 0,8 C 87 % 89 % 0 % 1005,5 hPa 0,0 l/m 1,6 km/h (1 Bft) O-NO 67 0 min 0,0 UV-I 3,0 C 5,8 C 2,1 km/h (1 Bft)
07.03.2013 20:55 5,1 C 11,1 C 5,6 C 5,8 C 5,8 C 0,7 C 87 % 89 % 0 % 1005,5 hPa 0,0 l/m 1,1 km/h (1 Bft) O-NO 67 0 min 0,0 UV-I 3,1 C 5,8 C 0,0 km/h (0 Bft)
07.03.2013 21:00 4,9 C 11,1 C 5,6 C 5,8 C 5,8 C 0,9 C 87 % 89 % 0 % 1005,8 hPa 0,0 l/m 0,8 km/h (0 Bft) NO 45 0 min 0,0 UV-I 2,9 C 5,8 C 0,0 km/h (0 Bft)
07.03.2013 21:05 4,9 C 11,1 C 5,5 C 5,8 C 5,8 C 0,9 C 87 % 89 % 0 % 1005,8 hPa 0,7 l/m 1,1 km/h (1 Bft) O-NO 67 0 min 0,0 UV-I 2,9 C 5,8 C 3,1 km/h (1 Bft)
07.03.2013 21:10 4,9 C 11,0 C 5,5 C 5,8 C 5,8 C 0,9 C 87 % 89 % 0 % 1005,8 hPa 0,0 l/m 1,4 km/h (1 Bft) NO 45 0 min 0,0 UV-I 2,9 C 5,8 C 2,1 km/h (1 Bft)
07.03.2013 21:15 4,8 C 11,0 C 5,5 C 5,8 C 5,8 C 1,0 C 88 % 89 % 0 % 1005,8 hPa 0,0 l/m 1,4 km/h (1 Bft) O-NO 67 0 min 0,0 UV-I 3,0 C 5,8 C 2,7 km/h (1 Bft)
07.03.2013 21:20 4,8 C 11,1 C 5,5 C 5,7 C 5,7 C 0,9 C 88 % 89 % 0 % 1005,3 hPa 0,0 l/m 1,6 km/h (1 Bft) O-NO 67 0 min 0,0 UV-I 3,0 C 5,7 C 0,0 km/h (0 Bft)
07.03.2013 21:25 4,9 C 11,1 C 5,5 C 5,7 C 5,7 C 0,8 C 88 % 89 % 0 % 1005,3 hPa 0,0 l/m 1,3 km/h (1 Bft) NO 45 0 min 0,0 UV-I 3,1 C 5,7 C 1,8 km/h (1 Bft)
07.03.2013 21:30 4,8 C 11,1 C 5,5 C 5,7 C 5,7 C 0,9 C 88 % 89 % 0 % 1005,3 hPa 0,0 l/m 1,0 km/h (0 Bft) O 90 0 min 0,0 UV-I 3,0 C 5,7 C 2,1 km/h (1 Bft)
07.03.2013 21:35 4,8 C 11,1 C 5,4 C 5,6 C 5,6 C 0,8 C 88 % 89 % 0 % 1005,3 hPa 0,0 l/m 1,1 km/h (1 Bft) N-NW 337 0 min 0,0 UV-I 3,0 C 5,6 C 2,1 km/h (1 Bft)
07.03.2013 21:40 4,7 C 11,1 C 5,4 C 5,6 C 5,6 C 0,9 C 88 % 89 % 0 % 1005,9 hPa 0,0 l/m 1,6 km/h (1 Bft) NO 45 0 min 0,0 UV-I 2,9 C 5,6 C 3,7 km/h (1 Bft)
07.03.2013 21:45 4,7 C 11,1 C 5,5 C 5,6 C 5,6 C 0,9 C 88 % 89 % 0 % 1005,9 hPa 0,0 l/m 2,1 km/h (1 Bft) O-NO 67 0 min 0,0 UV-I 2,9 C 5,6 C 1,6 km/h (1 Bft)
07.03.2013 21:50 4,7 C 11,1 C 5,3 C 5,6 C 5,6 C 0,9 C 88 % 89 % 0 % 1005,9 hPa 0,0 l/m 1,9 km/h (1 Bft) O-NO 67 0 min 0,0 UV-I 2,9 C 5,6 C 1,8 km/h (1 Bft)
07.03.2013 21:55 4,7 C 11,1 C 5,3 C 5,6 C 5,6 C 0,9 C 88 % 89 % 0 % 1005,9 hPa 0,0 l/m 1,8 km/h (1 Bft) O-NO 67 0 min 0,0 UV-I 2,9 C 5,6 C 3,2 km/h (1 Bft)
07.03.2013 22:00 4,7 C 11,1 C 5,3 C 5,5 C 5,5 C 0,8 C 88 % 89 % 0 % 1005,4 hPa 0,0 l/m 1,4 km/h (1 Bft) O-NO 67 0 min 0,0 UV-I 2,9 C 5,5 C 1,6 km/h (1 Bft)
07.03.2013 22:05 4,6 C 11,1 C 5,3 C 5,5 C 5,5 C 0,9 C 88 % 89 % 0 % 1005,4 hPa 0,0 l/m 1,1 km/h (1 Bft) O-NO 67 0 min 0,0 UV-I 2,8 C 5,5 C 0,0 km/h (0 Bft)
07.03.2013 22:10 4,6 C 11,1 C 5,3 C 5,5 C 5,5 C 0,9 C 88 % 89 % 0 % 1005,4 hPa 0,0 l/m 1,4 km/h (1 Bft) O-NO 67 0 min 0,0 UV-I 2,8 C 5,5 C 1,9 km/h (1 Bft)
07.03.2013 22:15 4,7 C 11,1 C 5,2 C 5,5 C 5,5 C 0,8 C 88 % 89 % 0 % 1005,4 hPa 0,0 l/m 1,0 km/h (0 Bft) NO 45 0 min 0,0 UV-I 2,9 C 5,5 C 0,0 km/h (0 Bft)
07.03.2013 22:20 4,7 C 11,1 C 5,2 C 5,5 C 5,5 C 0,8 C 88 % 89 % 0 % 1005,7 hPa 0,0 l/m 0,8 km/h (0 Bft) O-SO 112 0 min 0,0 UV-I 2,9 C 5,5 C 0,0 km/h (0 Bft)
07.03.2013 22:25 4,7 C 11,1 C 5,2 C 5,5 C 5,5 C 0,8 C 88 % 89 % 0 % 1005,7 hPa 0,7 l/m 0,3 km/h (0 Bft) N-NW 337 0 min 0,0 UV-I 2,9 C 5,5 C 0,0 km/h (0 Bft)
07.03.2013 22:30 4,6 C 11,1 C 5,2 C 5,5 C 5,5 C 0,9 C 88 % 89 % 0 % 1005,7 hPa 0,0 l/m 0,0 km/h (0 Bft) O-SO 112 0 min 0,0 UV-I 2,8 C 5,5 C 0,0 km/h (0 Bft)
07.03.2013 22:35 4,6 C 11,1 C 5,2 C 5,5 C 5,5 C 0,9 C 88 % 90 % 0 % 1005,7 hPa 0,0 l/m 0,0 km/h (0 Bft) N-NO 22 0 min 0,0 UV-I 2,8 C 5,5 C 0,0 km/h (0 Bft)
07.03.2013 22:40 4,5 C 11,1 C 5,3 C 5,5 C 5,5 C 1,0 C 88 % 90 % 0 % 1005,7 hPa 0,0 l/m 0,3 km/h (0 Bft) NO 45 0 min 0,0 UV-I 2,7 C 5,5 C 0,0 km/h (0 Bft)
07.03.2013 22:45 4,5 C 11,1 C 5,2 C 5,5 C 5,5 C 1,0 C 88 % 90 % 0 % 1005,7 hPa 0,0 l/m 0,6 km/h (0 Bft) O-NO 67 0 min 0,0 UV-I 2,7 C 5,5 C 1,6 km/h (1 Bft)
07.03.2013 22:50 4,5 C 11,1 C 5,3 C 5,5 C 5,5 C 1,0 C 88 % 90 % 0 % 1005,7 hPa 0,0 l/m 0,8 km/h (0 Bft) NO 45 0 min 0,0 UV-I 2,7 C 5,5 C 0,0 km/h (0 Bft)
07.03.2013 22:55 4,5 C 11,1 C 5,2 C 5,5 C 5,5 C 1,0 C 88 % 90 % 0 % 1005,7 hPa 0,0 l/m 0,8 km/h (0 Bft) SO 135 0 min 0,0 UV-I 2,7 C 5,5 C 0,0 km/h (0 Bft)
07.03.2013 23:00 4,5 C 11,1 C 5,2 C 5,5 C 5,5 C 1,0 C 88 % 90 % 0 % 1005,5 hPa 0,0 l/m 0,6 km/h (0 Bft) O 90 0 min 0,0 UV-I 2,7 C 5,5 C 2,6 km/h (1 Bft)
07.03.2013 23:05 4,5 C 11,1 C 5,2 C 5,5 C 5,5 C 1,0 C 88 % 90 % 0 % 1005,5 hPa 0,0 l/m 1,3 km/h (1 Bft) O-NO 67 0 min 0,0 UV-I 2,7 C 5,5 C 4,2 km/h (1 Bft)
07.03.2013 23:10 4,5 C 11,1 C 5,2 C 5,5 C 5,5 C 1,0 C 88 % 90 % 0 % 1005,5 hPa 0,0 l/m 1,6 km/h (1 Bft) O-NO 67 0 min 0,0 UV-I 2,7 C 5,5 C 0,0 km/h (0 Bft)
07.03.2013 23:15 4,5 C 11,1 C 5,2 C 5,5 C 5,5 C 1,0 C 88 % 91 % 0 % 1005,5 hPa 0,0 l/m 1,6 km/h (1 Bft) O-SO 112 0 min 0,0 UV-I 2,7 C 5,5 C 2,9 km/h (1 Bft)
07.03.2013 23:20 4,4 C 11,1 C 5,2 C 5,5 C 5,5 C 1,1 C 89 % 91 % 0 % 1005,4 hPa 0,0 l/m 1,8 km/h (1 Bft) O-NO 67 0 min 0,0 UV-I 2,7 C 5,5 C 2,1 km/h (1 Bft)
07.03.2013 23:25 4,4 C 11,1 C 5,2 C 5,5 C 5,5 C 1,1 C 89 % 91 % 0 % 1005,4 hPa 0,0 l/m 2,3 km/h (1 Bft) O-NO 67 0 min 0,0 UV-I 2,7 C 5,5 C 1,9 km/h (1 Bft)
07.03.2013 23:30 4,5 C 11,1 C 5,1 C 5,5 C 5,5 C 1,0 C 89 % 91 % 0 % 1005,4 hPa 0,0 l/m 2,4 km/h (1 Bft) O-NO 67 0 min 0,0 UV-I 2,8 C 5,5 C 3,1 km/h (1 Bft)
07.03.2013 23:35 4,4 C 11,1 C 5,2 C 5,5 C 5,5 C 1,1 C 89 % 91 % 0 % 1005,4 hPa 0,0 l/m 2,6 km/h (1 Bft) O-NO 67 0 min 0,0 UV-I 2,7 C 5,5 C 4,0 km/h (1 Bft)
07.03.2013 23:40 4,4 C 11,1 C 5,2 C 5,4 C 5,4 C 1,0 C 89 % 91 % 0 % 1005,2 hPa 0,0 l/m 3,2 km/h (1 Bft) N-NO 22 0 min 0,0 UV-I 2,7 C 5,4 C 4,0 km/h (1 Bft)
07.03.2013 23:45 4,4 C 11,1 C 5,2 C 5,1 C 5,1 C 0,7 C 89 % 91 % 0 % 1005,2 hPa 0,0 l/m 4,0 km/h (1 Bft) NO 45 0 min 0,0 UV-I 2,7 C 5,1 C 2,9 km/h (1 Bft)
07.03.2013 23:50 4,4 C 11,1 C 5,2 C 5,2 C 5,2 C 0,8 C 89 % 91 % 0 % 1005,2 hPa 0,0 l/m 3,7 km/h (1 Bft) O 90 0 min 0,0 UV-I 2,7 C 5,2 C 2,3 km/h (1 Bft)
07.03.2013 23:55 4,5 C 11,1 C 5,2 C 5,5 C 5,5 C 1,0 C 89 % 91 % 0 % 1005,2 hPa 0,0 l/m 2,7 km/h (1 Bft) S-SO 157 0 min 0,0 UV-I 2,8 C 5,5 C 3,1 km/h (1 Bft)
_ Min-Zeit 02:30 09:45 01:15 00:00 00:00 00:00 15:40 15:25 00:00 06:00 - 00:00 - - - 00:00 02:15 00:00 00:00
Minimum _ -0,4 C 9,2 C -0,4 C 0,1 C -0,2 C 0,0 C 74 % 77 % 0 % 1002,8 hPa - 0,0 km/h (0 Bft) - - - 0,0 UV-I -2,7 C -0,2 C 0,0 km/h (0 Bft)
_ Max-Zeit 15:15 19:10 15:10 14:55 14:55 10:10 23:20 23:15 10:10 21:40 21:05 12:30 - - 06:55 12:15 15:15 14:55 13:10
Maximum _ 10,6 C 11,1 C 10,8 C 12,6 C 12,6 C 3,2 C 89 % 91 % 84 % 1005,9 hPa 0,7 l/m 5,3 km/h
O-NO (1 Bft)
- - 9 min 0,8 UV-I 6,4 C 12,6 C 10,0 km/h
O-NO (2 Bft)
Durchschnitt _ 5,0 C 10,2 C 5,3 C 6,2 C 6,2 C 1,2 C 83 % 85 % 21 % 1004,1 hPa #1,4 l/m 1,6 km/h (1 Bft) O-NO - #54 min. 0,4 UV-I 2,2 C 6,2 C 2,0 km/h (1 Bft)
2013 www.wetterstation-wechselburg.de